Time;durP1;ratioP1;P1;durP2;ratioP2;P2;SDS_P1;SDS_P2;PMS_P1;PMS_P2;Temp;Humidity;BMP_temperature;BMP_pressure;BME280_temperature;BME280_humidity;BME280_pressure;Samples;Min_cycle;Max_cycle;Signal;HPM_P1;HPM_P2
2021/12/19 00:01:03;;;;;;;62.15;35.65;;;;;;;3.39;100.00;99609.59;2079905;28;20788;-77
2021/12/19 00:02:17;;;;;;;60.58;35.25;;;;;;;3.46;100.00;99627.09;2081232;28;20192;-77
2021/12/19 00:03:34;;;;;;;56.72;34.17;;;;;;;3.44;100.00;99622.06;2080046;28;20180;-77
2021/12/19 00:04:44;;;;;;;55.13;33.40;;;;;;;3.41;100.00;99633.09;2089412;28;20195;-77
2021/12/19 00:08:32;;;;;;;53.03;33.72;;;;;;;3.39;100.00;99619.34;2081315;28;20654;-77
2021/12/19 00:09:34;;;;;;;54.75;34.80;;;;;;;3.40;100.00;99615.69;2080526;28;20184;-76
2021/12/19 00:10:35;;;;;;;57.83;34.42;;;;;;;3.39;100.00;99622.00;2081166;28;20196;-77
2021/12/19 00:11:37;;;;;;;59.97;34.37;;;;;;;3.40;100.00;99621.75;2081336;28;20188;-77
2021/12/19 00:12:37;;;;;;;53.67;33.80;;;;;;;3.44;100.00;99637.91;2073595;28;20192;-77
2021/12/19 00:13:40;;;;;;;57.43;33.47;;;;;;;3.42;100.00;99610.16;2089445;28;20195;-77
2021/12/19 00:14:42;;;;;;;53.15;33.53;;;;;;;3.46;100.00;99619.19;2080979;28;20291;-77
2021/12/19 00:15:43;;;;;;;57.88;34.20;;;;;;;3.44;100.00;99616.81;2064896;28;20197;-77
2021/12/19 00:16:44;;;;;;;52.03;33.40;;;;;;;3.48;100.00;99622.41;2073046;28;20192;-77
2021/12/19 00:17:45;;;;;;;51.17;34.10;;;;;;;3.46;100.00;99598.09;2089285;28;20202;-77
2021/12/19 00:18:48;;;;;;;53.17;33.80;;;;;;;3.49;100.00;99614.28;2089374;28;20179;-77
2021/12/19 00:19:49;;;;;;;55.97;35.10;;;;;;;3.48;100.00;99607.41;2081047;28;20203;-77
2021/12/19 00:20:51;;;;;;;55.30;34.90;;;;;;;3.47;100.00;99615.53;2081151;28;20242;-77
2021/12/19 00:21:52;;;;;;;53.22;32.55;;;;;;;3.48;100.00;99607.41;2081127;28;20200;-77
2021/12/19 00:22:55;;;;;;;55.37;34.00;;;;;;;3.46;100.00;99613.91;2081136;28;20191;-77
2021/12/19 00:23:56;;;;;;;57.13;34.60;;;;;;;3.46;100.00;99606.00;2073641;28;20197;-78
2021/12/19 00:24:57;;;;;;;56.57;34.30;;;;;;;3.49;100.00;99613.47;2073711;28;20220;-77
2021/12/19 00:25:58;;;;;;;56.58;34.20;;;;;;;3.47;100.00;99599.69;2073500;28;20199;-77
2021/12/19 00:27:00;;;;;;;56.47;34.97;;;;;;;3.46;100.00;99613.91;2073767;28;20196;-77
2021/12/19 00:28:01;;;;;;;56.42;35.90;;;;;;;3.46;100.00;99603.38;2073645;28;20196;-77
2021/12/19 00:29:03;;;;;;;54.37;35.30;;;;;;;3.47;100.00;99610.25;2072649;28;20222;-77
2021/12/19 00:30:06;;;;;;;50.33;34.80;;;;;;;3.46;100.00;99609.44;2080951;28;20731;-77
2021/12/19 00:31:07;;;;;;;57.50;36.15;;;;;;;3.48;100.00;99603.97;2081019;28;20238;-77
2021/12/19 00:32:09;;;;;;;55.15;36.85;;;;;;;3.46;100.00;99606.00;2073438;28;20287;-76
2021/12/19 00:33:11;;;;;;;51.58;34.50;;;;;;;3.48;100.00;99606.59;2072778;28;20203;-77
2021/12/19 00:34:15;;;;;;;55.10;34.97;;;;;;;3.49;100.00;99597.63;2073175;28;20650;-77
2021/12/19 00:35:16;;;;;;;54.45;34.80;;;;;;;3.50;100.00;99594.75;2073327;28;20288;-77
2021/12/19 00:36:18;;;;;;;54.35;34.92;;;;;;;3.55;100.00;99604.59;2089115;28;20191;-76
2021/12/19 00:37:19;;;;;;;54.20;36.35;;;;;;;3.53;100.00;99599.56;2089250;28;20195;-76
2021/12/19 00:38:22;;;;;;;51.97;34.95;;;;;;;3.53;100.00;99604.84;2080912;28;20195;-76
2021/12/19 00:39:23;;;;;;;55.10;34.53;;;;;;;3.53;100.00;99593.47;2081188;28;20651;-76
2021/12/19 00:40:25;;;;;;;55.10;34.77;;;;;;;3.54;100.00;99595.06;2080971;28;20754;-76
2021/12/19 00:41:26;;;;;;;52.17;35.72;;;;;;;3.53;100.00;99609.31;2080863;28;20236;-76
2021/12/19 00:42:29;;;;;;;57.70;35.33;;;;;;;3.51;100.00;99600.84;2072746;28;20196;-77
2021/12/19 00:43:33;;;;;;;53.55;35.20;;;;;;;3.51;100.00;99592.94;2072835;28;20192;-76
2021/12/19 00:44:37;;;;;;;56.55;35.00;;;;;;;3.56;100.00;99601.75;2073405;28;20663;-76
2021/12/19 00:45:40;;;;;;;53.45;35.10;;;;;;;3.54;100.00;99598.50;2080976;28;20198;-76
2021/12/19 00:46:48;;;;;;;53.80;35.15;;;;;;;3.51;100.00;99596.34;2080725;28;20230;-76
2021/12/19 00:47:48;;;;;;;57.17;35.83;;;;;;;3.53;100.00;99589.00;2080841;28;20249;-76
2021/12/19 00:48:52;;;;;;;53.70;34.83;;;;;;;3.54;100.00;99600.34;2081247;28;20188;-76
2021/12/19 00:49:54;;;;;;;52.03;34.35;;;;;;;3.53;100.00;99594.28;2073309;28;20242;-76
2021/12/19 00:50:56;;;;;;;53.35;35.83;;;;;;;3.52;100.00;99602.44;2089042;28;20268;-76
2021/12/19 00:51:57;;;;;;;54.72;35.75;;;;;;;3.51;100.00;99580.53;2088276;28;20199;-77
2021/12/19 00:52:59;;;;;;;53.33;35.73;;;;;;;3.52;100.00;99600.59;2072864;28;20730;-77
2021/12/19 00:54:04;;;;;;;49.47;33.95;;;;;;;3.53;100.00;99581.09;2072930;28;20679;-76
2021/12/19 00:55:06;;;;;;;52.50;35.20;;;;;;;3.55;100.00;99596.69;2073177;28;20220;-76
2021/12/19 00:56:07;;;;;;;52.70;35.17;;;;;;;3.53;100.00;99577.66;2073342;28;20658;-76
2021/12/19 00:57:09;;;;;;;49.83;33.83;;;;;;;3.58;100.00;99585.66;2073338;28;20606;-76
2021/12/19 00:58:10;;;;;;;49.13;34.90;;;;;;;3.58;100.00;99585.66;2088989;28;20191;-77
2021/12/19 00:59:12;;;;;;;49.13;33.90;;;;;;;3.57;100.00;99581.44;2089154;28;20183;-76
2021/12/19 01:00:16;;;;;;;48.97;32.58;;;;;;;3.57;100.00;99578.78;2088986;28;20666;-76
2021/12/19 01:01:19;;;;;;;47.95;32.00;;;;;;;3.60;100.00;99589.66;2088502;28;20201;-77
2021/12/19 01:02:19;;;;;;;42.85;31.30;;;;;;;3.60;100.00;99576.47;2073273;28;20196;-77
2021/12/19 01:03:23;;;;;;;45.43;32.00;;;;;;;3.61;100.00;99586.00;2073239;28;20243;-77
2021/12/19 01:04:25;;;;;;;48.83;31.13;;;;;;;3.64;100.00;99574.94;2073327;28;20200;-77
2021/12/19 01:05:28;;;;;;;46.70;33.28;;;;;;;3.63;100.00;99583.09;2088848;28;20210;-77
2021/12/19 01:06:29;;;;;;;46.25;31.95;;;;;;;3.62;100.00;99581.50;2088610;28;20219;-77
2021/12/19 01:07:31;;;;;;;45.60;32.45;;;;;;;3.64;100.00;99566.22;2073132;28;20553;-76
2021/12/19 01:08:32;;;;;;;43.42;31.02;;;;;;;3.62;100.00;99565.69;2080772;28;20224;-77
2021/12/19 01:09:35;;;;;;;40.17;30.07;;;;;;;3.64;100.00;99564.41;2080784;28;20285;-77
2021/12/19 01:10:36;;;;;;;44.03;30.73;;;;;;;3.59;100.00;99548.50;2080732;28;20192;-77
2021/12/19 01:11:39;;;;;;;44.40;31.93;;;;;;;3.60;100.00;99554.56;2080743;28;20246;-78
2021/12/19 01:12:40;;;;;;;38.70;29.90;;;;;;;3.65;100.00;99549.38;2072483;28;20208;-77
2021/12/19 01:13:41;;;;;;;43.73;30.10;;;;;;;3.65;100.00;99560.75;2072534;28;20188;-77
2021/12/19 01:14:42;;;;;;;42.55;29.92;;;;;;;3.66;100.00;99561.53;2080743;28;20693;-77
2021/12/19 01:15:44;;;;;;;38.50;28.80;;;;;;;3.65;100.00;99557.31;2073097;28;20629;-78
2021/12/19 01:16:46;;;;;;;44.92;30.70;;;;;;;3.68;100.00;99548.91;2073409;28;20227;-78
2021/12/19 01:17:47;;;;;;;41.28;29.23;;;;;;;3.71;100.00;99550.25;2088834;28;20191;-77
2021/12/19 01:18:48;;;;;;;38.47;28.35;;;;;;;3.77;100.00;99539.56;2088811;28;20202;-76
2021/12/19 01:19:50;;;;;;;39.28;28.60;;;;;;;3.75;100.00;99525.81;2080867;28;20700;-77
2021/12/19 01:20:51;;;;;;;35.67;28.20;;;;;;;3.74;100.00;99515.50;2073066;28;20196;-77
2021/12/19 01:21:53;;;;;;;38.07;28.17;;;;;;;3.75;100.00;99527.66;2073205;28;20192;-76
2021/12/19 01:22:54;;;;;;;32.60;27.13;;;;;;;3.76;100.00;99516.84;2073127;28;20200;-76
2021/12/19 01:23:55;;;;;;;32.67;27.90;;;;;;;3.72;100.00;99512.28;2088849;28;20716;-76
2021/12/19 01:24:58;;;;;;;34.97;27.55;;;;;;;3.75;100.00;99522.38;2088882;28;20244;-76
2021/12/19 01:25:59;;;;;;;32.38;26.73;;;;;;;3.80;100.00;99506.59;2073135;28;20307;-77
2021/12/19 01:27:00;;;;;;;32.75;27.13;;;;;;;3.78;100.00;99500.75;2073190;28;20192;-77
2021/12/19 01:28:02;;;;;;;38.90;28.57;;;;;;;3.81;100.00;99516.09;2073089;28;20193;-77
2021/12/19 01:29:04;;;;;;;32.08;27.92;;;;;;;3.78;100.00;99506.84;2080373;28;20239;-77
2021/12/19 01:30:07;;;;;;;36.60;27.15;;;;;;;3.74;100.00;99504.94;2080663;28;20618;-77
2021/12/19 01:31:09;;;;;;;34.33;27.15;;;;;;;3.78;100.00;99519.25;2088754;28;20197;-77
2021/12/19 01:32:10;;;;;;;31.63;27.17;;;;;;;3.76;100.00;99501.00;2088556;28;20215;-77
2021/12/19 01:33:11;;;;;;;36.83;28.10;;;;;;;3.76;100.00;99503.66;2088736;28;20187;-77
2021/12/19 01:34:13;;;;;;;30.73;26.65;;;;;;;3.76;100.00;99500.22;2088659;28;20195;-77
2021/12/19 01:35:16;;;;;;;30.00;25.95;;;;;;;3.73;100.00;99498.84;2080509;28;20275;-77
2021/12/19 01:36:18;;;;;;;31.15;26.65;;;;;;;3.76;100.00;99494.94;2080490;28;20195;-77
2021/12/19 01:37:19;;;;;;;31.15;26.33;;;;;;;3.74;100.00;99497.81;2080513;28;20203;-76
2021/12/19 01:38:21;;;;;;;31.10;27.00;;;;;;;3.77;100.00;99488.63;2073021;28;20224;-76
2021/12/19 01:39:22;;;;;;;34.53;27.55;;;;;;;3.72;100.00;99491.97;2072984;28;20215;-77
2021/12/19 01:40:25;;;;;;;32.83;26.93;;;;;;;3.74;100.00;99484.63;2080493;28;20697;-77
2021/12/19 01:41:27;;;;;;;33.15;26.17;;;;;;;3.77;100.00;99475.41;2080352;28;20238;-76
2021/12/19 01:42:30;;;;;;;31.50;27.10;;;;;;;3.77;100.00;99486.78;2073139;28;20708;-76
2021/12/19 01:43:32;;;;;;;28.40;25.40;;;;;;;3.77;100.00;99476.22;2073010;28;20220;-76
2021/12/19 01:44:32;;;;;;;30.90;25.40;;;;;;;3.84;100.00;99465.50;2073156;28;20651;-76
2021/12/19 01:45:37;;;;;;;32.30;26.47;;;;;;;3.85;100.00;99462.63;2072901;28;20580;-76
2021/12/19 01:46:39;;;;;;;31.13;25.60;;;;;;;3.77;100.00;99457.75;2072964;28;20203;-77
2021/12/19 01:47:40;;;;;;;28.92;24.75;;;;;;;3.81;100.00;99466.75;2072245;28;20629;-76
2021/12/19 01:48:42;;;;;;;29.65;25.70;;;;;;;3.78;100.00;99448.78;2072457;28;20184;-76
2021/12/19 01:49:43;;;;;;;30.48;25.60;;;;;;;3.80;100.00;99462.53;2072993;28;20189;-76
2021/12/19 01:50:44;;;;;;;31.87;26.23;;;;;;;3.76;100.00;99455.34;2072989;28;20271;-76
2021/12/19 01:51:45;;;;;;;31.38;26.23;;;;;;;3.76;100.00;99450.06;2072865;28;20657;-77
2021/12/19 01:52:48;;;;;;;33.10;26.53;;;;;;;3.89;100.00;99453.16;2072973;28;20518;-76
2021/12/19 01:53:49;;;;;;;33.05;26.33;;;;;;;3.84;100.00;99453.09;2072936;28;20227;-76
2021/12/19 01:54:50;;;;;;;28.52;25.42;;;;;;;3.80;100.00;99451.97;2072856;28;20299;-77
2021/12/19 01:55:53;;;;;;;30.48;25.75;;;;;;;3.78;100.00;99446.16;2072798;28;20287;-77
2021/12/19 01:56:54;;;;;;;30.95;26.35;;;;;;;3.81;100.00;99442.22;2072831;28;20197;-77
2021/12/19 01:57:56;;;;;;;29.20;24.67;;;;;;;3.78;100.00;99443.50;2072826;28;20185;-77
2021/12/19 01:58:57;;;;;;;29.13;25.15;;;;;;;3.76;100.00;99456.16;2072842;28;20188;-77
2021/12/19 01:59:59;;;;;;;27.67;24.43;;;;;;;3.76;100.00;99450.88;2073049;28;20227;-77
2021/12/19 02:01:00;;;;;;;29.63;24.67;;;;;;;3.76;100.00;99445.59;2072759;28;20227;-77
2021/12/19 02:02:02;;;;;;;28.17;24.45;;;;;;;3.74;100.00;99445.03;2072034;28;20198;-77
2021/12/19 02:03:07;;;;;;;26.63;23.88;;;;;;;3.73;100.00;99446.06;2072197;28;20196;-77
2021/12/19 02:04:09;;;;;;;27.40;23.45;;;;;;;3.78;100.00;99422.41;2073144;28;20176;-77
2021/12/19 02:05:10;;;;;;;25.60;22.83;;;;;;;3.77;100.00;99436.63;2072800;28;20192;-77
2021/12/19 02:06:12;;;;;;;26.83;24.03;;;;;;;3.78;100.00;99430.31;2072915;28;20215;-77
2021/12/19 02:07:13;;;;;;;25.48;22.92;;;;;;;3.77;100.00;99439.28;2080272;28;20635;-77
2021/12/19 02:08:16;;;;;;;26.45;23.67;;;;;;;3.74;100.00;99429.22;2088588;28;20194;-76
2021/12/19 02:09:17;;;;;;;27.15;24.38;;;;;;;3.73;100.00;99432.06;2088320;28;20556;-77
2021/12/19 02:10:20;;;;;;;25.50;22.83;;;;;;;3.72;100.00;99431.25;2072834;28;20239;-77
2021/12/19 02:11:23;;;;;;;26.85;24.13;;;;;;;3.72;100.00;99436.53;2072725;28;20611;-76
2021/12/19 02:12:24;;;;;;;27.98;23.15;;;;;;;3.74;100.00;99423.13;2072762;28;20200;-76
2021/12/19 02:13:25;;;;;;;25.60;23.00;;;;;;;3.73;100.00;99429.44;2088448;28;20245;-77
2021/12/19 02:14:26;;;;;;;25.58;23.08;;;;;;;3.70;100.00;99428.06;2088480;28;20284;-76
2021/12/19 02:15:29;;;;;;;26.83;23.60;;;;;;;3.68;100.00;99448.63;2072364;28;20255;-77
2021/12/19 02:16:30;;;;;;;26.85;23.83;;;;;;;3.65;100.00;99438.56;2072147;28;20274;-77
2021/12/19 02:17:32;;;;;;;26.17;23.23;;;;;;;3.66;100.00;99430.41;2080180;28;20192;-77
2021/12/19 02:18:34;;;;;;;27.45;24.10;;;;;;;3.68;100.00;99436.25;2080255;28;20241;-77
2021/12/19 02:19:36;;;;;;;29.50;24.75;;;;;;;3.70;100.00;99436.00;2072682;28;20196;-77
2021/12/19 02:20:41;;;;;;;27.02;24.33;;;;;;;3.68;100.00;99430.16;2072773;28;20692;-77
2021/12/19 02:21:42;;;;;;;26.05;23.25;;;;;;;3.66;100.00;99427.78;2072700;28;20169;-77
2021/12/19 02:22:45;;;;;;;28.50;23.87;;;;;;;3.66;100.00;99434.91;2072659;28;20184;-78
2021/12/19 02:23:45;;;;;;;29.33;24.58;;;;;;;3.64;100.00;99443.03;2080113;28;20199;-77
2021/12/19 02:24:47;;;;;;;27.80;24.73;;;;;;;3.63;100.00;99438.00;2080347;28;20192;-77
2021/12/19 02:25:48;;;;;;;29.52;25.02;;;;;;;3.58;100.00;99428.19;2080130;28;20211;-77
2021/12/19 02:26:50;;;;;;;29.65;24.30;;;;;;;3.59;100.00;99440.31;2071960;28;20283;-78
2021/12/19 02:27:51;;;;;;;28.27;24.63;;;;;;;3.58;100.00;99437.94;2072117;28;20196;-77
2021/12/19 02:28:53;;;;;;;32.70;26.07;;;;;;;3.54;100.00;99450.00;2080012;28;20195;-77
2021/12/19 02:29:53;;;;;;;30.13;25.30;;;;;;;3.58;100.00;99430.03;2080195;28;20179;-77
2021/12/19 02:30:56;;;;;;;28.73;25.02;;;;;;;3.57;100.00;99425.78;2072599;28;20667;-77
2021/12/19 02:31:57;;;;;;;31.27;25.92;;;;;;;3.53;100.00;99427.28;2072581;28;20756;-77
2021/12/19 02:32:59;;;;;;;32.87;25.13;;;;;;;3.53;100.00;99424.66;2080102;28;20635;-77
2021/12/19 02:34:05;;;;;;;32.25;24.98;;;;;;;3.49;100.00;99413.78;2080081;28;20218;-77
2021/12/19 02:35:10;;;;;;;29.60;25.08;;;;;;;3.48;100.00;99414.03;2080034;28;20298;-75
2021/12/19 02:36:25;;;;;;;34.00;26.20;;;;;;;3.50;100.00;99404.03;2079939;28;20596;-75
2021/12/19 02:37:54;;;;;;;34.55;25.85;;;;;;;3.49;100.00;99397.16;2088367;28;20222;-76
2021/12/19 02:39:21;;;;;;;34.00;25.70;;;;;;;3.40;100.00;99394.94;2081087;28;20200;-76
2021/12/19 02:40:34;;;;;;;29.48;25.23;;;;;;;3.37;100.00;99390.13;2088452;28;20195;-76
2021/12/19 02:48:21;;;;;;;29.23;24.38;;;;;;;3.28;100.00;99373.09;2072879;28;20180;-76
2021/12/19 02:49:23;;;;;;;31.58;25.38;;;;;;;3.29;100.00;99366.00;2072529;28;20528;-76
2021/12/19 02:50:26;;;;;;;34.00;25.45;;;;;;;3.30;100.00;99355.22;2088290;28;20191;-76
2021/12/19 02:51:33;;;;;;;33.72;25.20;;;;;;;3.28;100.00;99341.47;2088042;28;20191;-76
2021/12/19 02:52:35;;;;;;;31.15;24.58;;;;;;;3.25;100.00;99367.53;2072809;28;20273;-76
2021/12/19 02:53:37;;;;;;;29.40;25.17;;;;;;;3.25;100.00;99335.88;2080125;28;20200;-76
2021/12/19 02:54:39;;;;;;;29.55;24.88;;;;;;;3.24;100.00;99337.72;2079986;28;20184;-76
2021/12/19 02:55:41;;;;;;;27.95;23.77;;;;;;;3.25;100.00;99328.78;2072581;28;20215;-77
2021/12/19 02:56:43;;;;;;;38.60;25.50;;;;;;;3.20;100.00;99331.31;2079978;28;20766;-76
2021/12/19 02:57:46;;;;;;;27.83;24.83;;;;;;;3.22;100.00;99323.19;2080362;28;20365;-76
2021/12/19 02:58:48;;;;;;;31.20;25.73;;;;;;;3.19;100.00;99329.72;2072475;28;20196;-76
2021/12/19 02:59:48;;;;;;;33.70;26.30;;;;;;;3.25;100.00;99336.69;2072515;28;20196;-76
2021/12/19 03:00:50;;;;;;;29.37;25.67;;;;;;;3.26;100.00;99340.13;2072729;28;20185;-76
2021/12/19 03:01:51;;;;;;;29.73;25.67;;;;;;;3.23;100.00;99330.88;2080019;28;20195;-76
2021/12/19 03:02:53;;;;;;;31.13;25.73;;;;;;;3.22;100.00;99345.09;2071913;28;20242;-76
2021/12/19 03:03:54;;;;;;;29.30;25.00;;;;;;;3.24;100.00;99348.28;2072100;28;20258;-76
2021/12/19 03:04:58;;;;;;;31.97;24.83;;;;;;;3.23;100.00;99346.69;2072473;28;20192;-76
2021/12/19 03:05:59;;;;;;;32.75;25.90;;;;;;;3.25;100.00;99349.06;2079933;28;20250;-76
2021/12/19 03:07:03;;;;;;;28.23;24.55;;;;;;;3.24;100.00;99337.72;2088223;28;20187;-76
2021/12/19 03:08:07;;;;;;;31.35;25.83;;;;;;;3.27;100.00;99336.44;2087988;28;20653;-76
2021/12/19 03:09:10;;;;;;;33.08;26.02;;;;;;;3.28;100.00;99338.84;2072433;28;20290;-77
2021/12/19 03:10:56;;;;;;;34.17;26.50;;;;;;;3.26;100.00;99340.13;2072454;28;20192;-76
2021/12/19 03:12:07;;;;;;;29.25;23.73;;;;;;;3.23;100.00;99336.13;2079708;28;20587;-76
2021/12/19 03:13:20;;;;;;;28.13;24.13;;;;;;;3.20;100.00;99326.06;2071827;28;20274;-76
2021/12/19 03:18:29;;;;;;;27.25;21.98;;;;;;;3.27;100.00;99310.88;2065176;28;20200;-77
2021/12/19 03:19:30;;;;;;;26.98;23.35;;;;;;;3.25;100.00;99305.03;2080326;28;20198;-76
2021/12/19 03:20:33;;;;;;;29.80;23.33;;;;;;;3.26;100.00;99330.38;2082416;28;20226;-77
2021/12/19 03:21:33;;;;;;;29.55;23.65;;;;;;;3.32;100.00;99307.53;2074784;28;20192;-77
2021/12/19 03:22:36;;;;;;;28.40;24.70;;;;;;;3.31;100.00;99305.94;2082130;28;20253;-77
2021/12/19 03:23:38;;;;;;;29.52;24.88;;;;;;;3.25;100.00;99298.97;2074054;28;20195;-76
2021/12/19 03:24:39;;;;;;;28.40;23.85;;;;;;;3.27;100.00;99299.53;2073867;28;20202;-77
2021/12/19 03:25:40;;;;;;;28.77;24.10;;;;;;;3.23;100.00;99291.31;2082412;28;20192;-77
2021/12/19 03:26:42;;;;;;;28.83;24.70;;;;;;;3.23;100.00;99291.31;2074372;28;20184;-77
2021/12/19 03:27:43;;;;;;;28.55;24.33;;;;;;;3.26;100.00;99282.13;2074642;28;20196;-76
2021/12/19 03:28:44;;;;;;;26.83;23.23;;;;;;;3.27;100.00;99283.72;2081765;28;20213;-76
2021/12/19 03:29:45;;;;;;;26.60;23.80;;;;;;;3.25;100.00;99267.34;2073880;28;20215;-76
2021/12/19 03:30:48;;;;;;;27.07;24.13;;;;;;;3.22;100.00;99278.38;2065584;28;20193;-76
2021/12/19 03:31:49;;;;;;;28.65;23.73;;;;;;;3.23;100.00;99287.88;2065657;28;20631;-77
2021/12/19 03:32:51;;;;;;;27.97;24.27;;;;;;;3.22;100.00;99273.91;2073641;28;20200;-76
2021/12/19 03:33:52;;;;;;;25.90;23.10;;;;;;;3.23;100.00;99267.59;2073332;28;20300;-77
2021/12/19 03:34:54;;;;;;;30.20;24.48;;;;;;;3.29;100.00;99260.53;2073324;28;20283;-77
2021/12/19 03:35:55;;;;;;;27.45;23.80;;;;;;;3.26;100.00;99255.75;2073325;28;20238;-76
2021/12/19 03:36:57;;;;;;;29.10;24.10;;;;;;;3.24;100.00;99247.28;2081537;28;20211;-77
2021/12/19 03:38:03;;;;;;;27.42;24.38;;;;;;;3.21;100.00;99243.28;2090015;28;20653;-77
2021/12/19 03:39:13;;;;;;;29.77;23.92;;;;;;;3.24;100.00;99242.81;2073947;28;20514;-77
2021/12/19 03:40:22;;;;;;;30.10;24.95;;;;;;;3.20;100.00;99262.78;2081427;28;20196;-77
2021/12/19 03:41:32;;;;;;;25.42;22.52;;;;;;;3.25;100.00;99243.59;2073053;28;20732;-77
2021/12/19 03:42:35;;;;;;;27.58;23.15;;;;;;;3.23;100.00;99257.03;2073518;28;20632;-77
2021/12/19 03:43:37;;;;;;;26.50;23.27;;;;;;;3.24;100.00;99242.81;2073997;28;20207;-77
2021/12/19 03:44:38;;;;;;;27.30;23.52;;;;;;;3.27;100.00;99236.25;2074270;28;20246;-77
2021/12/19 03:45:41;;;;;;;27.30;22.92;;;;;;;3.26;100.00;99238.09;2074042;28;20610;-77
2021/12/19 03:46:42;;;;;;;27.33;23.13;;;;;;;3.26;100.00;99232.81;2074134;28;20197;-77
2021/12/19 03:47:44;;;;;;;27.33;23.77;;;;;;;3.26;100.00;99240.72;2074447;28;20188;-77
2021/12/19 03:48:45;;;;;;;26.08;23.27;;;;;;;3.27;100.00;99229.13;2081675;28;20633;-77
2021/12/19 03:49:46;;;;;;;28.47;23.50;;;;;;;3.30;100.00;99246.28;2073458;28;20262;-76
2021/12/19 03:50:49;;;;;;;29.25;24.42;;;;;;;3.31;100.00;99235.53;2065352;28;20683;-76
2021/12/19 03:51:51;;;;;;;27.33;23.70;;;;;;;3.34;100.00;99221.06;2073273;28;20283;-77
2021/12/19 03:52:53;;;;;;;26.02;23.33;;;;;;;3.34;100.00;99210.50;2073840;28;20251;-76
2021/12/19 03:53:56;;;;;;;27.90;24.02;;;;;;;3.33;100.00;99220.25;2089515;28;20232;-77
2021/12/19 03:54:58;;;;;;;26.02;23.30;;;;;;;3.33;100.00;99211.56;2089640;28;20593;-76
2021/12/19 03:55:59;;;;;;;26.65;23.73;;;;;;;3.34;100.00;99216.56;2073959;28;20623;-77
2021/12/19 03:57:00;;;;;;;27.73;24.48;;;;;;;3.36;100.00;99219.75;2081179;28;20265;-77
2021/12/19 03:58:03;;;;;;;26.30;23.47;;;;;;;3.38;100.00;99222.94;2081401;28;20254;-76
2021/12/19 03:59:03;;;;;;;26.80;23.75;;;;;;;3.38;100.00;99206.31;2081424;28;20210;-77
2021/12/19 04:00:09;;;;;;;26.93;24.13;;;;;;;3.37;100.00;99202.09;2073533;28;20232;-77
2021/12/19 04:01:11;;;;;;;28.83;24.50;;;;;;;3.36;100.00;99209.22;2073550;28;20192;-77
2021/12/19 04:02:12;;;;;;;27.88;24.30;;;;;;;3.36;100.00;99205.78;2089815;28;20653;-77
2021/12/19 04:03:18;;;;;;;26.08;23.05;;;;;;;3.36;100.00;99209.22;2089829;28;20195;-77
2021/12/19 04:04:20;;;;;;;25.98;23.35;;;;;;;3.40;100.00;99220.88;2080960;28;20259;-77
2021/12/19 04:05:21;;;;;;;26.48;23.73;;;;;;;3.46;100.00;99216.44;2074235;28;20639;-77
2021/12/19 04:06:23;;;;;;;25.63;22.98;;;;;;;3.45;100.00;99206.16;2081674;28;20188;-77
2021/12/19 04:07:25;;;;;;;26.58;23.23;;;;;;;3.45;100.00;99214.06;2081494;28;20199;-77
2021/12/19 04:08:27;;;;;;;28.10;24.73;;;;;;;3.45;100.00;99203.50;2081517;28;20191;-76
2021/12/19 04:09:29;;;;;;;27.42;24.00;;;;;;;3.47;100.00;99202.22;2081709;28;20637;-77
2021/12/19 04:10:32;;;;;;;26.67;23.83;;;;;;;3.49;100.00;99204.63;2073938;28;20188;-77
2021/12/19 04:11:32;;;;;;;24.92;22.42;;;;;;;3.49;100.00;99196.72;2073011;28;20207;-76
2021/12/19 04:12:34;;;;;;;24.83;22.23;;;;;;;3.56;100.00;99176.19;2073239;28;20235;-76
2021/12/19 04:13:35;;;;;;;25.85;22.52;;;;;;;3.51;100.00;99171.69;2073727;28;20246;-76
2021/12/19 04:14:37;;;;;;;26.42;21.83;;;;;;;3.51;100.00;99174.31;2072975;28;20204;-76
2021/12/19 04:15:38;;;;;;;25.15;22.30;;;;;;;3.49;100.00;99172.97;2073119;28;20201;-77
2021/12/19 04:16:42;;;;;;;25.10;22.47;;;;;;;3.50;100.00;99178.00;2081484;28;20235;-77
2021/12/19 04:17:43;;;;;;;26.05;23.25;;;;;;;3.48;100.00;99174.81;2073211;28;20223;-77
2021/12/19 04:18:45;;;;;;;25.30;22.60;;;;;;;3.51;100.00;99184.88;2073186;28;20231;-77
2021/12/19 04:19:45;;;;;;;25.05;22.05;;;;;;;3.54;100.00;99212.59;2074029;28;20196;-77
2021/12/19 04:20:47;;;;;;;25.17;22.53;;;;;;;3.52;100.00;99183.03;2081522;28;20196;-76
2021/12/19 04:21:48;;;;;;;24.75;22.05;;;;;;;3.54;100.00;99188.84;2073167;28;20237;-77
2021/12/19 04:22:51;;;;;;;24.40;21.93;;;;;;;3.54;100.00;99183.56;2073218;28;20283;-77
2021/12/19 04:23:52;;;;;;;24.52;22.08;;;;;;;3.54;100.00;99167.75;2089449;28;20237;-77
2021/12/19 04:24:55;;;;;;;23.83;21.23;;;;;;;3.53;100.00;99182.78;2081035;28;20199;-78
2021/12/19 04:25:56;;;;;;;24.98;22.35;;;;;;;3.54;100.00;99173.00;2064740;28;20205;-77
2021/12/19 04:26:58;;;;;;;24.92;22.08;;;;;;;3.50;100.00;99171.94;2072746;28;20191;-77
2021/12/19 04:27:59;;;;;;;25.20;22.17;;;;;;;3.53;100.00;99168.78;2073877;28;20215;-77
2021/12/19 04:29:01;;;;;;;24.93;21.80;;;;;;;3.52;100.00;99151.38;2073495;28;20184;-77
2021/12/19 04:30:03;;;;;;;23.38;20.88;;;;;;;3.52;100.00;99162.72;2073814;28;20176;-77
2021/12/19 04:31:05;;;;;;;22.90;20.42;;;;;;;3.54;100.00;99144.00;2073593;28;20212;-77
2021/12/19 04:32:07;;;;;;;22.58;20.27;;;;;;;3.56;100.00;99150.66;2073472;28;20271;-77
2021/12/19 04:33:11;;;;;;;22.83;20.52;;;;;;;3.55;100.00;99149.03;2089231;28;20191;-77
2021/12/19 04:34:13;;;;;;;25.10;21.35;;;;;;;3.59;100.00;99158.06;2088982;28;20190;-77
2021/12/19 04:35:15;;;;;;;23.27;20.90;;;;;;;3.61;100.00;99157.81;2081293;28;20227;-77
2021/12/19 04:36:24;;;;;;;23.40;20.90;;;;;;;3.65;100.00;99146.50;2081078;28;20200;-77
2021/12/19 04:37:49;;;;;;;23.48;20.98;;;;;;;3.64;100.00;99139.63;2081347;28;20180;-77
2021/12/19 04:40:15;;;;;;;26.85;21.23;;;;;;;3.71;100.00;99130.72;2089462;28;20245;-77
2021/12/19 04:51:13;;;;;;;22.45;20.17;;;;;;;3.71;100.00;99110.41;2073628;28;20580;-77
2021/12/19 04:52:39;;;;;;;21.73;19.73;;;;;;;3.65;100.00;99119.34;2080980;28;20195;-77
2021/12/19 04:53:55;;;;;;;22.00;19.83;;;;;;;3.71;100.00;99107.78;2080930;28;20188;-77
2021/12/19 04:55:15;;;;;;;22.75;19.80;;;;;;;3.68;100.00;99100.38;2079139;28;20188;-77
2021/12/19 04:56:30;;;;;;;22.10;19.85;;;;;;;3.69;100.00;99110.66;2073474;28;20181;-77
2021/12/19 04:57:37;;;;;;;22.30;20.15;;;;;;;3.72;100.00;99111.19;2073538;28;20603;-77
2021/12/19 05:00:12;;;;;;;22.52;20.23;;;;;;;3.74;100.00;99098.59;2073609;28;20219;-77
2021/12/19 05:01:31;;;;;;;21.60;19.50;;;;;;;3.73;100.00;99083.78;2080891;28;20184;-77
2021/12/19 05:02:49;;;;;;;22.33;20.08;;;;;;;3.73;100.00;99091.69;2078728;28;20263;-77
2021/12/19 05:04:04;;;;;;;22.73;20.40;;;;;;;3.74;100.00;99099.38;2072666;28;20192;-77
2021/12/19 05:06:47;;;;;;;21.45;19.55;;;;;;;3.76;100.00;99147.41;2067549;28;20268;-78
2021/12/19 05:14:40;;;;;;;22.02;19.85;;;;;;;3.76;100.00;99123.66;2080722;28;20214;-77
2021/12/19 05:15:45;;;;;;;22.70;20.38;;;;;;;3.79;100.00;99117.88;2080452;28;20180;-77
2021/12/19 05:16:48;;;;;;;24.27;21.70;;;;;;;3.77;100.00;99122.63;2073088;28;20675;-77
2021/12/19 05:17:48;;;;;;;22.15;19.90;;;;;;;3.74;100.00;99117.84;2080627;28;20195;-77
2021/12/19 05:18:53;;;;;;;21.60;19.60;;;;;;;3.75;100.00;99123.91;2080634;28;20684;-77
2021/12/19 05:20:07;;;;;;;22.27;19.85;;;;;;;3.75;100.00;99121.28;2080387;28;20650;-78
2021/12/19 05:21:15;;;;;;;22.45;20.15;;;;;;;3.73;100.00;99112.78;2073259;28;20173;-77
2021/12/19 05:22:18;;;;;;;22.33;20.13;;;;;;;3.74;100.00;99120.47;2073158;28;20243;-77
2021/12/19 05:23:25;;;;;;;23.40;20.92;;;;;;;3.77;100.00;99109.41;2073156;28;20608;-78
2021/12/19 05:24:46;;;;;;;22.67;20.45;;;;;;;3.73;100.00;99108.31;2073167;28;20234;-77
2021/12/19 05:25:48;;;;;;;22.85;20.63;;;;;;;3.72;100.00;99122.56;2072437;28;20188;-77
2021/12/19 05:26:50;;;;;;;23.33;20.88;;;;;;;3.74;100.00;99104.66;2072535;28;20655;-77